createdAt,value
2022-07-29T00:02:29.353Z,60.80
2022-07-29T00:04:56.082Z,60.90
2022-07-29T00:07:22.927Z,61.20
2022-07-29T00:09:51.820Z,61.20
2022-07-29T00:12:25.382Z,61.50
2022-07-29T00:14:53.939Z,61.60
2022-07-29T00:17:20.614Z,61.80
2022-07-29T00:19:47.254Z,61.70
2022-07-29T00:22:14.215Z,61.70
2022-07-29T00:24:40.911Z,61.90
2022-07-29T00:27:07.563Z,62.90
2022-07-29T00:29:35.013Z,62.10
2022-07-29T00:32:02.968Z,62.40
2022-07-29T00:34:48.573Z,62.40
2022-07-29T00:37:15.227Z,62.30
2022-07-29T00:39:41.851Z,62.50
2022-07-29T00:42:09.012Z,62.70
2022-07-29T00:44:40.234Z,63.00
2022-07-29T07:42:46.005Z,63.00
2022-07-29T07:45:16.219Z,62.70
2022-07-29T07:47:43.892Z,62.70
2022-07-29T07:50:18.495Z,62.70
2022-07-29T07:52:53.652Z,62.00
2022-07-29T07:55:20.811Z,61.70
2022-07-29T07:57:48.153Z,62.00
2022-07-29T08:00:16.531Z,61.40
2022-07-29T08:02:44.143Z,61.40
2022-07-29T08:05:13.018Z,61.80
2022-07-29T08:07:40.237Z,61.50
2022-07-29T08:10:07.832Z,60.90
2022-07-29T08:12:34.736Z,61.80
2022-07-29T08:15:01.692Z,61.30
2022-07-29T08:17:29.034Z,61.00
2022-07-29T08:19:55.891Z,60.70
2022-07-29T08:22:22.724Z,60.60
2022-07-29T08:24:56.730Z,60.00
2022-07-29T08:27:42.507Z,60.20
2022-07-29T08:30:11.408Z,60.10
2022-07-29T08:32:55.043Z,59.80
2022-07-29T08:35:23.939Z,60.40
2022-07-29T08:37:50.987Z,61.00
2022-07-29T08:40:18.037Z,60.90
2022-07-29T08:42:46.219Z,60.90
2022-07-29T08:45:13.862Z,61.60
2022-07-29T08:47:41.057Z,59.80
2022-07-29T08:50:09.803Z,60.00
2022-07-29T08:52:41.354Z,60.40
2022-07-29T08:55:10.048Z,58.70
2022-07-29T08:57:39.648Z,58.10
2022-07-29T09:00:19.370Z,59.30
2022-07-29T09:02:52.755Z,58.00
2022-07-29T09:05:20.452Z,57.20
2022-07-29T09:07:49.073Z,57.30
2022-07-29T09:10:15.971Z,56.20
2022-07-29T09:12:42.937Z,56.60
2022-07-29T09:15:10.062Z,57.90
2022-07-29T09:17:48.387Z,55.20
2022-07-29T09:20:17.163Z,56.00
2022-07-29T09:22:44.830Z,55.50
2022-07-29T09:25:13.320Z,56.10
2022-07-29T09:27:40.261Z,55.50
2022-07-29T09:30:12.529Z,54.20
2022-07-29T09:33:02.360Z,53.60
2022-07-29T09:35:30.481Z,52.90
2022-07-29T09:37:57.730Z,52.10
2022-07-29T09:40:27.541Z,52.80
2022-07-29T09:42:58.175Z,52.50
2022-07-29T09:45:32.599Z,51.30
2022-07-29T09:48:03.925Z,51.10
2022-07-29T09:50:41.636Z,51.30
2022-07-29T09:53:10.547Z,49.90
2022-07-29T09:55:52.770Z,49.50
2022-07-29T09:58:21.720Z,49.50
2022-07-29T10:00:50.702Z,49.20
2022-07-29T10:03:19.157Z,48.90
2022-07-29T10:05:47.175Z,48.90
2022-07-29T10:08:14.123Z,48.50
2022-07-29T10:10:43.213Z,48.40
2022-07-29T10:13:15.764Z,49.40
2022-07-29T10:15:46.439Z,48.30
2022-07-29T10:18:15.103Z,45.30
2022-07-29T10:20:42.411Z,44.70
2022-07-29T10:23:10.216Z,45.90
2022-07-29T10:25:37.165Z,44.40
2022-07-29T10:28:04.214Z,44.50
2022-07-29T10:30:32.593Z,45.20
2022-07-29T10:33:38.453Z,44.50
2022-07-29T10:36:28.135Z,43.00
2022-07-29T10:38:59.876Z,43.20
2022-07-29T10:42:00.003Z,43.50
2022-07-29T10:44:28.275Z,42.50
2022-07-29T10:46:55.993Z,42.80
2022-07-29T10:49:30.288Z,41.40
2022-07-29T10:52:08.977Z,42.90
2022-07-29T10:54:52.556Z,40.40
2022-07-29T10:57:52.470Z,42.20
2022-07-29T11:00:16.664Z,41.80
2022-07-29T11:02:45.933Z,42.40
2022-07-29T11:05:20.599Z,42.40
2022-07-29T11:08:20.500Z,43.00
2022-07-29T11:10:52.514Z,42.70
2022-07-29T11:13:51.003Z,42.90
2022-07-29T11:16:25.271Z,41.70
2022-07-29T11:19:14.165Z,40.20
2022-07-29T11:22:05.550Z,41.20
2022-07-29T11:24:34.950Z,41.10
2022-07-29T11:27:21.235Z,39.70
2022-07-29T11:29:54.789Z,40.10
2022-07-29T11:35:38.020Z,41.00
2022-07-29T11:38:31.839Z,41.60
2022-07-29T11:41:27.946Z,41.00
2022-07-29T11:44:00.006Z,41.10
2022-07-29T11:49:48.167Z,41.00
2022-07-29T11:52:15.310Z,40.90
2022-07-29T11:54:58.127Z,41.10
2022-07-29T11:57:36.075Z,40.80
2022-07-29T12:00:12.649Z,39.80
2022-07-29T12:02:43.987Z,40.30
2022-07-29T12:05:22.157Z,40.10
2022-07-29T12:07:02.023Z,40.60
2022-07-29T12:08:12.513Z,40.10
2022-07-29T12:10:42.774Z,39.70
2022-07-29T12:13:11.256Z,39.60
2022-07-29T12:15:47.007Z,39.40
2022-07-29T12:18:24.352Z,40.10
2022-07-29T12:21:05.078Z,39.90
2022-07-29T12:23:34.364Z,39.30
2022-07-29T12:26:04.997Z,40.10
2022-07-29T12:28:38.999Z,40.10
2022-07-29T12:31:06.140Z,39.30
2022-07-29T12:33:35.831Z,40.60
2022-07-29T12:36:06.739Z,39.20
2022-07-29T12:38:40.807Z,39.10
2022-07-29T12:41:07.760Z,39.60
2022-07-29T12:43:34.462Z,39.10
2022-07-29T12:46:14.009Z,38.10
2022-07-29T12:48:42.748Z,38.40
2022-07-29T12:51:12.446Z,39.40
2022-07-29T12:53:39.507Z,39.80
2022-07-29T12:56:20.547Z,38.10
2022-07-29T12:58:53.963Z,38.60
2022-07-29T13:01:22.317Z,38.10
2022-07-29T13:03:57.391Z,38.00
2022-07-29T13:06:50.899Z,38.60
2022-07-29T13:09:24.142Z,38.20
2022-07-29T13:11:53.060Z,37.70
2022-07-29T13:14:32.866Z,37.80
2022-07-29T13:17:08.423Z,36.90
2022-07-29T13:19:43.958Z,38.40
2022-07-29T13:22:16.048Z,40.00
2022-07-29T13:25:02.995Z,38.70
2022-07-29T13:27:33.041Z,37.60
2022-07-29T13:30:01.687Z,36.50
2022-07-29T13:32:30.934Z,36.40
2022-07-29T13:34:59.503Z,36.80
2022-07-29T13:37:27.277Z,36.40
2022-07-29T13:39:55.126Z,37.40
2022-07-29T13:42:21.817Z,38.10
2022-07-29T13:44:49.683Z,39.30
2022-07-29T13:47:17.115Z,39.30
2022-07-29T13:49:43.823Z,37.70
2022-07-29T13:52:10.456Z,38.70
2022-07-29T13:54:42.136Z,38.80
2022-07-29T13:57:09.819Z,40.00
2022-07-29T13:59:36.453Z,39.40
2022-07-29T14:02:03.416Z,40.10
2022-07-29T14:04:30.204Z,40.60
2022-07-29T14:06:56.943Z,40.10
2022-07-29T14:09:23.851Z,40.60
2022-07-29T14:11:52.215Z,39.80
2022-07-29T14:14:19.303Z,40.40
2022-07-29T14:16:47.873Z,39.20
2022-07-29T14:19:18.723Z,40.00
2022-07-29T14:21:46.349Z,40.60
2022-07-29T14:24:17.741Z,40.00
2022-07-29T14:26:46.370Z,39.60
2022-07-29T14:29:13.287Z,41.10
2022-07-29T14:31:39.984Z,41.30
2022-07-29T14:34:06.650Z,41.80
2022-07-29T14:36:33.321Z,40.10
2022-07-29T14:38:59.912Z,41.80
2022-07-29T14:41:29.073Z,41.80
2022-07-29T14:43:55.916Z,42.50
2022-07-29T14:46:22.838Z,42.10
2022-07-29T14:48:49.564Z,43.10
2022-07-29T14:51:16.452Z,42.00
2022-07-29T14:53:43.223Z,40.90
2022-07-29T14:56:34.165Z,40.80
2022-07-29T14:58:58.279Z,41.10
2022-07-29T15:01:25.732Z,39.90
2022-07-29T15:03:55.711Z,40.60
2022-07-29T15:06:24.784Z,40.50
2022-07-29T15:08:51.430Z,41.20
2022-07-29T15:11:18.056Z,40.60
2022-07-29T15:13:44.906Z,38.80
2022-07-29T15:16:11.667Z,38.80
2022-07-29T15:18:39.206Z,38.90
2022-07-29T15:21:08.729Z,39.40
2022-07-29T15:23:39.529Z,38.80
2022-07-29T15:26:06.360Z,38.30
2022-07-29T15:28:33.036Z,38.70
2022-07-29T15:30:59.802Z,38.70
2022-07-29T15:33:27.071Z,38.80
2022-07-29T15:35:53.698Z,39.30
2022-07-29T15:38:20.439Z,38.30
2022-07-29T15:40:55.772Z,38.70
2022-07-29T15:43:22.762Z,38.60
2022-07-29T15:46:08.266Z,38.30
2022-07-29T15:48:39.122Z,39.50
2022-07-29T15:51:06.144Z,38.10
2022-07-29T15:53:33.099Z,38.40
2022-07-29T15:56:02.110Z,38.80
2022-07-29T15:58:28.831Z,38.80
2022-07-29T16:00:55.531Z,39.40
2022-07-29T16:03:22.892Z,34.90
2022-07-29T16:05:49.549Z,35.70
2022-07-29T16:08:16.268Z,35.40
2022-07-29T16:10:43.062Z,34.90
2022-07-29T16:13:09.663Z,36.10
2022-07-29T16:15:36.552Z,35.10
2022-07-29T16:18:03.415Z,35.50
2022-07-29T16:20:30.168Z,36.10
2022-07-29T16:22:57.090Z,36.20
2022-07-29T16:25:38.432Z,35.90
2022-07-29T16:28:10.723Z,36.20
2022-07-29T16:30:37.493Z,35.30
2022-07-29T16:33:08.192Z,35.50
2022-07-29T16:35:39.813Z,36.00
2022-07-29T16:38:06.742Z,36.40
2022-07-29T16:40:33.360Z,35.50
2022-07-29T16:43:00.146Z,35.90
2022-07-29T16:45:27.018Z,35.60
2022-07-29T16:48:01.129Z,36.00
2022-07-29T16:50:28.906Z,36.70
2022-07-29T16:52:56.325Z,36.60
2022-07-29T16:55:23.747Z,35.90
2022-07-29T16:57:52.676Z,37.50
2022-07-29T17:00:20.917Z,38.80
2022-07-29T17:02:48.184Z,38.00
2022-07-29T17:05:15.768Z,38.00
2022-07-29T17:07:42.748Z,38.40
2022-07-29T17:10:10.236Z,38.70
2022-07-29T17:12:38.989Z,38.60
2022-07-29T17:15:07.339Z,38.90
2022-07-29T17:17:39.283Z,39.10
2022-07-29T17:20:21.199Z,39.20
2022-07-29T17:22:47.872Z,39.50
2022-07-29T17:25:21.035Z,39.50
2022-07-29T17:27:49.687Z,39.60
2022-07-29T17:30:16.762Z,40.10
2022-07-29T17:32:43.443Z,39.20
2022-07-29T17:35:29.077Z,38.60
2022-07-29T17:37:56.131Z,38.90
2022-07-29T17:40:23.277Z,39.50
2022-07-29T17:42:50.403Z,39.90
2022-07-29T17:45:17.211Z,40.00
2022-07-29T17:47:45.139Z,40.30
2022-07-29T17:50:12.156Z,41.00
2022-07-29T17:52:39.115Z,41.40
2022-07-29T17:55:07.512Z,41.80
2022-07-29T17:57:34.290Z,41.30
2022-07-29T18:00:01.010Z,41.30
2022-07-29T18:02:28.515Z,41.30
2022-07-29T18:04:55.505Z,41.00
2022-07-29T18:07:22.327Z,40.30
2022-07-29T18:09:48.980Z,40.10
2022-07-29T18:12:16.007Z,40.90
2022-07-29T18:14:42.696Z,40.40
2022-07-29T18:17:09.482Z,39.80
2022-07-29T18:19:36.310Z,39.60
2022-07-29T18:22:04.901Z,39.90
2022-07-29T18:24:32.478Z,39.90
2022-07-29T18:26:59.694Z,40.10
2022-07-29T18:29:29.107Z,40.40
2022-07-29T18:31:56.460Z,41.10
2022-07-29T18:34:23.413Z,42.20
2022-07-29T18:36:50.205Z,42.90
2022-07-29T18:39:20.323Z,43.30
2022-07-29T18:41:51.738Z,43.70
2022-07-29T18:44:22.525Z,44.40
2022-07-29T18:46:51.054Z,44.10
2022-07-29T18:49:18.639Z,44.70
2022-07-29T18:51:45.437Z,45.10
2022-07-29T18:54:12.220Z,44.70
2022-07-29T18:56:39.118Z,45.20
2022-07-29T18:59:06.169Z,45.60
2022-07-29T19:01:34.074Z,45.70
2022-07-29T19:04:01.390Z,46.10
2022-07-29T19:06:28.237Z,46.50
2022-07-29T19:08:55.177Z,46.60
2022-07-29T19:11:22.073Z,46.80
2022-07-29T19:13:49.235Z,47.20
2022-07-29T19:16:15.963Z,48.00
2022-07-29T19:18:43.503Z,48.10
2022-07-29T19:21:10.657Z,48.60
2022-07-29T19:24:02.422Z,49.20
2022-07-29T19:26:26.425Z,49.40
2022-07-29T19:28:53.365Z,49.70
2022-07-29T19:31:20.514Z,50.20
2022-07-29T19:33:47.473Z,50.40
2022-07-29T19:36:14.307Z,50.70
2022-07-29T19:38:41.454Z,51.10
2022-07-29T19:41:08.703Z,51.80
2022-07-29T19:43:50.563Z,51.70
2022-07-29T19:46:20.174Z,52.20
2022-07-29T19:48:47.330Z,52.30
2022-07-29T19:51:14.202Z,52.50
2022-07-29T19:53:41.446Z,53.00
2022-07-29T19:56:08.928Z,53.30
2022-07-29T19:58:36.369Z,53.60
2022-07-29T20:01:10.402Z,53.70
2022-07-29T20:03:41.828Z,54.00
2022-07-29T20:06:08.874Z,54.30
2022-07-29T20:08:36.121Z,54.80
2022-07-29T20:11:03.381Z,55.20
2022-07-29T20:13:33.203Z,55.10
2022-07-29T20:16:01.210Z,56.50
2022-07-29T20:18:28.524Z,56.10
2022-07-29T20:20:57.528Z,56.40
2022-07-29T20:23:24.443Z,56.50
2022-07-29T20:25:51.197Z,56.60
2022-07-29T20:28:18.232Z,57.10
2022-07-29T20:30:45.215Z,57.60
2022-07-29T20:33:14.785Z,58.00
2022-07-29T20:35:41.765Z,58.20
2022-07-29T20:38:08.676Z,58.60
2022-07-29T20:40:35.799Z,58.10
2022-07-29T20:43:02.633Z,58.80
2022-07-29T20:45:29.309Z,59.40
